Terminal Aerodrome Forecast
Issued by NWS

Current Version | Previous Version | Text Only | Print | Product List | Glossary Off
Versions: 1 2 3 4 5 6 7 8 9 10 11 12 13 14 15 16 17 18 19 20 21 22

881
FTUS41 KRLX 040859 AAA
TAFCKB
TAF AMD
KCKB 040859Z 0409/0506 30006KT P6SM OVC050
     FM041200 27005KT P6SM BKN025
     FM050400 29005KT P6SM BKN025=

USA.gov is the U.S. government's official web portal to all federal, state and local government web resources and services.